TimeAKDT,TemperatureF,Dew PointF,Humidity,Sea Level PressureIn,VisibilityMPH,Wind Direction,Wind SpeedMPH,Gust SpeedMPH,PrecipitationIn,Events,Conditions,WindDirDegrees,DateUTC
12:53 AM,37.9,34.0,86,30.03,10.0,NE,5.8,-,N/A,,Overcast,40,2013-10-22 08:53:00
1:53 AM,39.0,35.1,86,30.06,10.0,SSE,4.6,-,0.00,,Overcast,160,2013-10-22 09:53:00
2:53 AM,39.9,37.0,89,30.08,10.0,SSE,5.8,-,0.00,Rain,Light Rain,160,2013-10-22 10:53:00
3:43 AM,39.2,35.6,87,30.08,10.0,SSE,5.8,-,0.00,,Overcast,150,2013-10-22 11:43:00
3:53 AM,39.9,36.0,86,30.09,10.0,SSE,8.1,-,0.00,,Overcast,150,2013-10-22 11:53:00
4:53 AM,39.9,37.0,89,30.11,10.0,SSE,6.9,-,0.00,,Overcast,150,2013-10-22 12:53:00
5:53 AM,39.9,37.0,89,30.12,10.0,SSE,9.2,-,N/A,,Overcast,150,2013-10-22 13:53:00
6:44 AM,39.2,37.4,93,30.11,10.0,SE,11.5,-,0.01,,Overcast,140,2013-10-22 14:44:00
6:53 AM,39.9,37.0,89,30.13,10.0,SSE,11.5,-,0.01,,Overcast,150,2013-10-22 14:53:00
7:39 AM,39.2,37.4,93,30.13,10.0,SSE,11.5,-,N/A,,Overcast,160,2013-10-22 15:39:00
7:53 AM,39.9,37.9,93,30.14,10.0,SSE,11.5,-,N/A,,Overcast,160,2013-10-22 15:53:00
8:03 AM,39.2,37.4,93,30.14,10.0,South,11.5,-,N/A,,Overcast,170,2013-10-22 16:03:00
8:21 AM,39.2,37.4,93,30.14,10.0,South,12.7,-,N/A,,Overcast,170,2013-10-22 16:21:00
8:53 AM,39.9,37.9,93,30.16,10.0,South,9.2,-,N/A,,Overcast,170,2013-10-22 16:53:00
9:53 AM,39.0,37.0,93,30.17,10.0,SSE,6.9,-,N/A,,Overcast,160,2013-10-22 17:53:00
10:53 AM,39.9,37.9,93,30.18,9.0,SSE,5.8,-,0.02,Rain,Light Rain,160,2013-10-22 18:53:00
11:53 AM,41.0,39.0,93,30.19,6.0,SW,10.4,-,0.01,Rain,Light Rain,230,2013-10-22 19:53:00
12:53 PM,43.0,37.9,82,30.19,10.0,South,5.8,-,0.00,,Overcast,180,2013-10-22 20:53:00
1:28 PM,44.6,37.4,76,30.18,10.0,SSW,5.8,-,N/A,,Scattered Clouds,210,2013-10-22 21:28:00
1:53 PM,44.1,37.9,79,30.19,10.0,SSW,5.8,-,N/A,,Clear,200,2013-10-22 21:53:00
2:53 PM,45.0,36.0,71,30.18,10.0,SW,4.6,-,N/A,,Clear,220,2013-10-22 22:53:00
3:53 PM,45.0,36.0,71,30.18,10.0,WSW,3.5,-,N/A,,Clear,250,2013-10-22 23:53:00
4:53 PM,45.0,36.0,71,30.16,10.0,NW,3.5,-,N/A,,Clear,320,2013-10-23 00:53:00
5:53 PM,43.0,37.0,80,30.15,10.0,North,4.6,-,N/A,,Clear,350,2013-10-23 01:53:00
6:53 PM,37.9,36.0,93,30.14,10.0,North,4.6,-,N/A,,Clear,360,2013-10-23 02:53:00
7:53 PM,36.0,35.1,97,30.13,10.0,North,4.6,-,N/A,,Clear,350,2013-10-23 03:53:00
8:53 PM,35.1,35.1,100,30.12,10.0,North,4.6,-,N/A,,Scattered Clouds,350,2013-10-23 04:53:00
9:53 PM,35.1,35.1,100,30.11,10.0,North,5.8,-,N/A,,Clear,10,2013-10-23 05:53:00
10:22 PM,35.6,35.6,100,30.09,10.0,North,6.9,-,N/A,,Partly Cloudy,10,2013-10-23 06:22:00
10:53 PM,37.0,37.0,100,30.09,10.0,North,9.2,-,N/A,,Scattered Clouds,10,2013-10-23 06:53:00
11:46 PM,37.4,37.4,100,30.06,10.0,North,8.1,-,N/A,,Mostly Cloudy,10,2013-10-23 07:46:00
11:53 PM,37.0,37.0,100,30.06,10.0,North,9.2,-,N/A,,Mostly Cloudy,10,2013-10-23 07:53:00